createdAt,value
2019-05-26T00:02:42.676Z,20.70
2019-05-26T00:06:05.754Z,19.00
2019-05-26T00:09:28.863Z,17.47
2019-05-26T00:12:51.973Z,15.13
2019-05-26T00:16:15.258Z,14.40
2019-05-26T00:19:38.446Z,12.37
2019-05-26T00:23:01.560Z,15.20
2019-05-26T00:26:24.667Z,18.53
2019-05-26T00:29:47.922Z,16.93
2019-05-26T00:33:11.231Z,14.47
2019-05-26T00:36:34.461Z,14.23
2019-05-26T00:39:57.891Z,13.57
2019-05-26T00:43:21.039Z,15.83
2019-05-26T00:46:44.118Z,19.27
2019-05-26T00:50:07.727Z,17.47
2019-05-26T00:53:30.852Z,16.30
2019-05-26T00:56:54.060Z,12.70
2019-05-26T01:00:40.290Z,13.73
2019-05-26T01:04:03.889Z,14.57
2019-05-26T01:07:27.084Z,13.93
2019-05-26T01:10:50.257Z,14.37
2019-05-26T01:14:13.458Z,16.87
2019-05-26T01:17:36.803Z,17.23
2019-05-26T01:21:00.037Z,16.27
2019-05-26T01:24:23.214Z,19.13
2019-05-26T01:27:46.306Z,18.80
2019-05-26T01:31:09.513Z,18.70
2019-05-26T01:34:33.762Z,18.43
2019-05-26T01:38:22.539Z,21.60
2019-05-26T01:41:31.525Z,21.10
2019-05-26T01:44:55.976Z,21.90
2019-05-26T01:48:19.227Z,23.30
2019-05-26T01:51:42.458Z,22.77
2019-05-26T01:55:05.731Z,22.53
2019-05-26T01:58:29.850Z,23.17
2019-05-26T02:01:53.385Z,22.90
2019-05-26T02:05:16.474Z,22.47
2019-05-26T02:08:40.027Z,24.17
2019-05-26T02:12:03.774Z,24.33
2019-05-26T02:15:29.035Z,26.27
2019-05-26T02:18:52.229Z,23.87
2019-05-26T02:22:15.364Z,26.43
2019-05-26T02:25:39.479Z,25.23
2019-05-26T02:29:02.615Z,26.87
2019-05-26T02:32:25.730Z,27.33
2019-05-26T02:35:48.863Z,27.30
2019-05-26T02:39:12.146Z,28.80
2019-05-26T02:42:35.323Z,28.57
2019-05-26T02:45:58.450Z,29.50
2019-05-26T02:49:21.856Z,30.33
2019-05-26T02:52:44.960Z,30.13
2019-05-26T02:56:09.315Z,31.73
2019-05-26T02:59:32.432Z,32.37
2019-05-26T03:02:55.803Z,33.13
2019-05-26T03:06:20.454Z,35.13
2019-05-26T03:09:44.228Z,37.20
2019-05-26T03:13:08.296Z,37.93
2019-05-26T03:16:35.170Z,39.00
2019-05-26T03:20:01.369Z,36.37
2019-05-26T03:23:29.273Z,38.07
2019-05-26T03:26:52.338Z,39.03
2019-05-26T03:30:16.391Z,35.60
2019-05-26T03:33:40.103Z,36.73
2019-05-26T03:37:03.365Z,37.40
2019-05-26T03:40:26.572Z,38.37
2019-05-26T03:43:49.642Z,35.77
2019-05-26T03:47:16.563Z,34.43
2019-05-26T03:50:38.586Z,34.57
2019-05-26T03:54:01.742Z,35.60
2019-05-26T03:57:24.796Z,36.23
2019-05-26T04:00:48.032Z,36.90
2019-05-26T04:04:11.172Z,36.00
2019-05-26T04:07:34.370Z,38.73
2019-05-26T04:10:57.415Z,40.97
2019-05-26T04:14:21.263Z,41.40
2019-05-26T04:17:44.500Z,40.80
2019-05-26T04:21:07.923Z,44.90
2019-05-26T04:24:33.027Z,43.63
2019-05-26T04:27:57.275Z,45.83
2019-05-26T04:31:20.484Z,49.10
2019-05-26T04:34:43.563Z,46.07
2019-05-26T04:38:06.698Z,47.27
2019-05-26T04:41:29.840Z,45.23
2019-05-26T04:44:55.553Z,45.57
2019-05-26T04:48:18.590Z,44.20
2019-05-26T04:51:41.730Z,44.47
2019-05-26T04:55:08.022Z,44.40
2019-05-26T04:58:31.136Z,41.80
2019-05-26T05:01:54.400Z,44.03
2019-05-26T05:05:17.497Z,46.10
2019-05-26T05:08:40.667Z,44.93
2019-05-26T05:12:03.781Z,49.33
2019-05-26T05:15:27.000Z,49.57
2019-05-26T05:18:50.303Z,51.10
2019-05-26T05:22:13.502Z,51.80
2019-05-26T05:25:37.589Z,51.97
2019-05-26T05:29:01.025Z,47.90
2019-05-26T05:32:24.670Z,49.70
2019-05-26T05:35:47.676Z,52.07
2019-05-26T05:39:11.031Z,48.98
2019-05-26T05:42:34.176Z,49.87
2019-05-26T05:45:57.366Z,48.95
2019-05-26T05:49:20.545Z,47.13
2019-05-26T05:52:43.724Z,45.78
2019-05-26T05:56:07.437Z,45.90
2019-05-26T05:59:31.049Z,42.80
2019-05-26T06:02:54.456Z,45.67
2019-05-26T06:06:17.561Z,43.05
2019-05-26T06:09:40.803Z,42.50
2019-05-26T06:13:04.450Z,43.45
2019-05-26T06:16:27.850Z,44.08
2019-05-26T06:19:51.305Z,43.10
2019-05-26T06:23:14.657Z,43.58
2019-05-26T06:26:37.790Z,39.60
2019-05-26T06:30:01.093Z,41.65
2019-05-26T06:33:24.146Z,39.50
2019-05-26T06:36:47.419Z,37.38
2019-05-26T06:40:11.752Z,39.38
2019-05-26T06:43:34.962Z,37.78
2019-05-26T06:46:58.021Z,37.20
2019-05-26T06:50:21.806Z,36.33
2019-05-26T06:53:45.454Z,37.25
2019-05-26T06:57:08.707Z,34.10
2019-05-26T07:00:31.995Z,36.50
2019-05-26T07:03:55.253Z,35.88
2019-05-26T07:07:18.817Z,52.53
2019-05-26T07:10:42.047Z,35.78
2019-05-26T07:14:05.271Z,34.00
2019-05-26T07:17:28.444Z,31.37
2019-05-26T07:20:51.752Z,32.17
2019-05-26T07:24:15.176Z,31.30
2019-05-26T07:27:38.293Z,29.25
2019-05-26T07:31:01.502Z,28.35
2019-05-26T07:34:24.978Z,27.00
2019-05-26T07:37:48.206Z,26.87
2019-05-26T07:41:11.504Z,22.30
2019-05-26T07:44:34.867Z,25.82
2019-05-26T07:47:57.944Z,25.08
2019-05-26T07:51:21.153Z,22.52
2019-05-26T07:54:44.303Z,22.77
2019-05-26T07:58:08.531Z,23.67
2019-05-26T08:01:36.041Z,21.37
2019-05-26T08:04:58.191Z,22.30
2019-05-26T08:08:21.371Z,21.25
2019-05-26T08:11:44.625Z,18.52
2019-05-26T08:15:08.200Z,20.12
2019-05-26T08:18:31.744Z,16.75
2019-05-26T08:21:54.925Z,17.12
2019-05-26T08:25:18.200Z,15.63
2019-05-26T08:28:41.299Z,14.55
2019-05-26T08:32:04.493Z,14.18
2019-05-26T08:35:27.594Z,14.03
2019-05-26T08:38:50.880Z,13.53
2019-05-26T08:42:26.230Z,13.78
2019-05-26T08:45:39.115Z,12.68
2019-05-26T08:49:04.004Z,12.37
2019-05-26T08:52:27.111Z,11.93
2019-05-26T08:55:50.316Z,12.78
2019-05-26T08:59:13.646Z,11.03
2019-05-26T09:02:36.865Z,11.05
2019-05-26T09:06:00.196Z,10.13
2019-05-26T09:09:23.305Z,10.63
2019-05-26T09:12:59.761Z,9.73
2019-05-26T09:16:11.445Z,9.50
2019-05-26T09:19:34.760Z,9.63
2019-05-26T09:22:58.306Z,9.35
2019-05-26T09:26:22.515Z,8.90
2019-05-26T09:29:45.654Z,8.63
2019-05-26T09:33:09.091Z,7.75
2019-05-26T09:36:32.189Z,8.40
2019-05-26T09:39:55.417Z,7.50
2019-05-26T09:43:18.660Z,7.35
2019-05-26T09:46:42.066Z,7.60
2019-05-26T09:50:06.680Z,5.75
2019-05-26T09:53:30.028Z,7.42
2019-05-26T09:56:53.136Z,8.15
2019-05-26T10:00:16.636Z,8.35
2019-05-26T10:03:39.815Z,8.45
2019-05-26T10:07:03.030Z,7.40
2019-05-26T10:10:26.287Z,8.35
2019-05-26T10:13:49.577Z,8.55
2019-05-26T10:17:12.729Z,8.88
2019-05-26T10:20:35.839Z,8.98
2019-05-26T10:23:59.309Z,7.65
2019-05-26T10:27:22.503Z,8.25
2019-05-26T10:30:45.700Z,7.42
2019-05-26T10:34:08.769Z,7.75
2019-05-26T10:37:31.875Z,7.97
2019-05-26T10:40:55.038Z,7.90
2019-05-26T10:44:18.322Z,6.80
2019-05-26T10:47:41.537Z,6.97
2019-05-26T10:51:06.847Z,6.30
2019-05-26T10:54:29.786Z,6.28
2019-05-26T10:57:53.041Z,6.60
2019-05-26T11:01:16.281Z,6.55
2019-05-26T11:04:39.609Z,6.70
2019-05-26T11:08:02.825Z,7.37
2019-05-26T11:11:26.380Z,6.65
2019-05-26T11:14:49.812Z,6.10
2019-05-26T11:18:12.917Z,6.37
2019-05-26T11:21:36.056Z,6.85
2019-05-26T11:24:59.285Z,6.05
2019-05-26T11:28:22.514Z,5.75
2019-05-26T11:31:45.947Z,6.10
2019-05-26T11:35:10.132Z,6.47
2019-05-26T11:38:33.886Z,6.20
2019-05-26T11:42:10.567Z,6.83
2019-05-26T11:45:22.260Z,7.35
2019-05-26T11:48:45.704Z,5.85
2019-05-26T11:52:09.239Z,7.08
2019-05-26T11:55:32.517Z,7.55
2019-05-26T11:58:55.619Z,6.83
2019-05-26T12:02:18.716Z,7.08
2019-05-26T12:05:43.283Z,7.08
2019-05-26T12:09:08.022Z,6.15
2019-05-26T12:12:31.102Z,5.58
2019-05-26T12:15:54.298Z,5.65
2019-05-26T12:19:17.529Z,4.70
2019-05-26T12:22:40.804Z,5.50
2019-05-26T12:26:04.062Z,5.40
2019-05-26T12:29:28.618Z,5.78
2019-05-26T12:32:52.000Z,7.03
2019-05-26T12:36:15.780Z,5.80
2019-05-26T12:39:41.191Z,5.55
2019-05-26T12:43:04.471Z,7.40
2019-05-26T12:46:27.752Z,5.10
2019-05-26T12:49:51.070Z,5.25
2019-05-26T12:53:14.495Z,4.85
2019-05-26T12:56:37.805Z,4.33
2019-05-26T13:00:00.924Z,4.08
2019-05-26T13:03:24.231Z,4.58
2019-05-26T13:06:47.362Z,5.37
2019-05-26T13:10:11.747Z,4.40
2019-05-26T13:13:35.216Z,4.17
2019-05-26T13:17:01.419Z,3.87
2019-05-26T13:20:23.629Z,4.22
2019-05-26T13:23:46.733Z,4.30
2019-05-26T13:27:10.129Z,4.95
2019-05-26T13:30:33.555Z,5.62
2019-05-26T13:33:57.316Z,5.47
2019-05-26T13:37:20.534Z,4.92
2019-05-26T13:40:45.125Z,4.90
2019-05-26T13:44:08.263Z,4.95
2019-05-26T13:47:31.657Z,5.22
2019-05-26T13:50:54.864Z,5.80
2019-05-26T13:54:21.595Z,5.08
2019-05-26T13:57:49.547Z,4.70
2019-05-26T14:01:13.325Z,4.58
2019-05-26T14:04:36.513Z,5.62
2019-05-26T14:08:02.475Z,4.78
2019-05-26T14:11:25.652Z,4.83
2019-05-26T14:14:49.356Z,4.15
2019-05-26T14:18:18.366Z,4.28
2019-05-26T14:21:41.443Z,4.62
2019-05-26T14:25:05.049Z,4.67
2019-05-26T14:28:28.082Z,4.75
2019-05-26T14:31:52.886Z,4.65
2019-05-26T14:35:15.826Z,4.10
2019-05-26T14:38:43.209Z,4.47
2019-05-26T14:42:04.113Z,4.20
2019-05-26T14:45:27.401Z,4.90
2019-05-26T14:48:50.942Z,5.05
2019-05-26T14:52:14.358Z,4.72
2019-05-26T14:55:37.559Z,5.50
2019-05-26T14:59:00.806Z,5.62
2019-05-26T15:02:24.151Z,5.22
2019-05-26T15:05:47.246Z,5.28
2019-05-26T15:09:24.288Z,6.83
2019-05-26T15:12:35.475Z,6.45
2019-05-26T15:16:09.195Z,5.72
2019-05-26T15:19:23.686Z,6.25
2019-05-26T15:22:46.780Z,6.67
2019-05-26T15:26:10.139Z,5.65
2019-05-26T15:29:33.435Z,5.53
2019-05-26T15:32:56.957Z,6.35
2019-05-26T15:36:20.648Z,6.28
2019-05-26T15:39:43.881Z,5.60
2019-05-26T15:43:08.044Z,5.00
2019-05-26T15:46:31.306Z,5.08
2019-05-26T15:49:54.643Z,5.03
2019-05-26T15:53:18.176Z,4.97
2019-05-26T15:56:41.750Z,5.17
2019-05-26T16:00:05.669Z,5.55
2019-05-26T16:03:29.262Z,5.50
2019-05-26T16:06:52.761Z,5.55
2019-05-26T16:10:16.038Z,5.40
2019-05-26T16:13:42.252Z,5.95
2019-05-26T16:17:09.473Z,5.87
2019-05-26T16:20:32.766Z,6.75
2019-05-26T16:23:56.054Z,6.00
2019-05-26T16:27:20.019Z,5.95
2019-05-26T16:30:43.402Z,6.47
2019-05-26T16:34:06.816Z,6.10
2019-05-26T16:37:34.247Z,5.10
2019-05-26T16:40:57.732Z,5.45
2019-05-26T16:44:21.562Z,5.40
2019-05-26T16:47:44.877Z,5.10
2019-05-26T16:51:08.516Z,5.33
2019-05-26T16:54:32.249Z,6.12
2019-05-26T16:57:55.439Z,5.50
2019-05-26T17:01:23.848Z,6.12
2019-05-26T17:04:47.571Z,5.85
2019-05-26T17:08:10.997Z,5.15
2019-05-26T17:11:34.173Z,5.30
2019-05-26T17:14:57.418Z,5.33
2019-05-26T17:18:21.469Z,5.10
2019-05-26T17:21:44.793Z,5.83
2019-05-26T17:25:08.194Z,5.40
2019-05-26T17:28:31.578Z,5.80
2019-05-26T17:31:54.762Z,5.17
2019-05-26T17:35:19.140Z,5.08
2019-05-26T17:38:42.602Z,4.65
2019-05-26T17:42:05.971Z,4.50
2019-05-26T17:45:29.398Z,4.70
2019-05-26T17:48:52.709Z,5.97
2019-05-26T17:52:16.450Z,5.92
2019-05-26T17:55:40.015Z,5.70
2019-05-26T17:59:04.675Z,6.05
2019-05-26T18:02:29.361Z,5.35
2019-05-26T18:05:52.950Z,5.97
2019-05-26T18:09:16.475Z,6.55
2019-05-26T18:12:39.733Z,5.60
2019-05-26T18:16:02.952Z,5.28
2019-05-26T18:19:29.963Z,5.95
2019-05-26T18:22:53.736Z,6.33
2019-05-26T18:26:18.734Z,6.42
2019-05-26T18:29:44.143Z,6.58
2019-05-26T18:33:07.500Z,5.37
2019-05-26T18:36:30.635Z,5.65
2019-05-26T18:39:54.086Z,6.25
2019-05-26T18:43:17.344Z,5.40
2019-05-26T18:46:43.414Z,4.72
2019-05-26T18:50:07.218Z,6.03
2019-05-26T18:53:30.571Z,3.75
2019-05-26T18:56:54.089Z,4.72
2019-05-26T19:00:17.521Z,3.85
2019-05-26T19:03:44.038Z,3.35
2019-05-26T19:07:07.573Z,3.65
2019-05-26T19:10:31.098Z,3.90
2019-05-26T19:13:54.574Z,3.75
2019-05-26T19:17:18.957Z,4.00
2019-05-26T19:20:42.589Z,3.62
2019-05-26T19:24:06.320Z,3.20
2019-05-26T19:27:29.703Z,3.37
2019-05-26T19:30:53.278Z,3.47
2019-05-26T19:34:16.767Z,3.72
2019-05-26T19:37:42.503Z,3.30
2019-05-26T19:41:06.437Z,3.67
2019-05-26T19:44:30.377Z,4.12
2019-05-26T19:47:53.775Z,3.27
2019-05-26T19:51:17.099Z,3.83
2019-05-26T19:54:40.543Z,3.95
2019-05-26T19:58:04.295Z,3.62
2019-05-26T20:01:28.306Z,4.37
2019-05-26T20:04:51.452Z,4.17
2019-05-26T20:08:19.623Z,4.47
2019-05-26T20:11:42.868Z,3.98
2019-05-26T20:15:08.930Z,4.83
2019-05-26T20:18:32.254Z,4.33
2019-05-26T20:21:56.467Z,5.47
2019-05-26T20:25:19.738Z,4.67
2019-05-26T20:28:43.021Z,5.45
2019-05-26T20:32:06.181Z,5.78
2019-05-26T20:35:31.383Z,6.17
2019-05-26T20:38:54.687Z,7.22
2019-05-26T20:42:18.353Z,6.70
2019-05-26T20:45:41.584Z,6.72
2019-05-26T20:49:05.152Z,6.60
2019-05-26T20:52:30.332Z,7.20
2019-05-26T20:55:54.178Z,6.83
2019-05-26T20:59:17.306Z,6.12
2019-05-26T21:02:40.592Z,6.85
2019-05-26T21:06:03.998Z,5.70
2019-05-26T21:09:27.290Z,6.05
2019-05-26T21:12:50.640Z,6.92
2019-05-26T21:16:13.981Z,5.95
2019-05-26T21:19:37.257Z,5.65
2019-05-26T21:23:00.514Z,5.53
2019-05-26T21:26:23.983Z,5.92
2019-05-26T21:29:47.347Z,5.40
2019-05-26T21:33:10.592Z,5.17
2019-05-26T21:36:33.891Z,5.05
2019-05-26T21:39:57.065Z,6.12
2019-05-26T21:43:20.176Z,5.80
2019-05-26T21:46:43.382Z,5.37
2019-05-26T21:50:07.154Z,5.40
2019-05-26T21:53:30.467Z,5.33
2019-05-26T21:56:53.618Z,5.25
2019-05-26T22:00:20.503Z,4.80
2019-05-26T22:03:45.735Z,4.20
2019-05-26T22:07:10.138Z,5.85
2019-05-26T22:10:33.435Z,4.97
2019-05-26T22:13:56.828Z,5.22
2019-05-26T22:17:20.165Z,5.50
2019-05-26T22:20:43.480Z,4.85
2019-05-26T22:24:06.749Z,4.83
2019-05-26T22:27:30.374Z,4.10
2019-05-26T22:30:53.613Z,4.53
2019-05-26T22:34:16.888Z,4.97
2019-05-26T22:37:40.154Z,4.12
2019-05-26T22:41:03.281Z,5.22
2019-05-26T22:44:26.730Z,4.78
2019-05-26T22:47:50.067Z,4.97
2019-05-26T22:51:13.257Z,5.65
2019-05-26T22:54:36.474Z,5.10
2019-05-26T22:57:59.766Z,5.92
2019-05-26T23:01:23.937Z,5.28
2019-05-26T23:04:47.532Z,5.58
2019-05-26T23:08:10.756Z,5.33
2019-05-26T23:12:19.647Z,5.85
2019-05-26T23:15:43.099Z,5.20
2019-05-26T23:19:18.837Z,4.75
2019-05-26T23:22:31.252Z,5.55
2019-05-26T23:25:54.517Z,5.78
2019-05-26T23:29:17.645Z,5.45
2019-05-26T23:32:40.947Z,5.08
2019-05-26T23:36:04.505Z,5.30
2019-05-26T23:39:27.798Z,6.05
2019-05-26T23:42:51.476Z,6.92
2019-05-26T23:46:14.583Z,7.22
2019-05-26T23:49:38.042Z,7.92
2019-05-26T23:53:01.226Z,8.00
2019-05-26T23:56:24.496Z,8.48
2019-05-26T23:59:47.735Z,7.87
